createdAt,value
2019-04-16T09:59:29.408Z,32.10
2019-04-16T10:03:53.802Z,31.50
2019-04-16T10:08:00.681Z,28.70
2019-04-16T10:12:10.413Z,30.20
2019-04-16T10:16:17.232Z,29.00
2019-04-16T10:20:28.978Z,30.60
2019-04-16T10:24:57.209Z,29.40
2019-04-16T10:29:24.026Z,30.70
2019-04-16T10:33:29.716Z,28.70
2019-04-16T10:37:36.568Z,29.80
2019-04-16T10:41:58.004Z,29.40
2019-04-16T10:48:24.654Z,28.80
2019-04-16T10:52:55.425Z,27.40
2019-04-16T10:59:43.039Z,30.70
2019-04-16T11:04:22.033Z,29.30
2019-04-16T11:09:09.445Z,27.20
2019-04-16T11:13:26.350Z,26.90
2019-04-16T11:17:39.025Z,29.10
2019-04-16T11:21:43.400Z,26.30
2019-04-16T11:25:49.493Z,27.90
2019-04-16T11:29:55.050Z,25.00
2019-04-16T11:33:59.220Z,27.10
2019-04-16T11:38:11.145Z,26.20
2019-04-16T11:46:03.092Z,26.00
2019-04-16T11:50:06.797Z,24.40
2019-04-16T11:54:15.632Z,23.80
2019-04-16T11:58:35.809Z,26.10
2019-04-16T12:03:05.223Z,24.30
2019-04-16T12:07:36.184Z,26.20
2019-04-16T12:11:59.310Z,26.20
2019-04-16T12:16:36.995Z,27.80
2019-04-16T12:21:06.001Z,26.60
2019-04-16T12:25:43.366Z,24.50
2019-04-16T12:30:26.901Z,24.10
2019-04-16T12:39:01.348Z,24.20
2019-04-16T12:43:36.004Z,25.10
2019-04-16T12:47:58.873Z,24.20
2019-04-16T12:52:39.614Z,24.50
2019-04-16T12:57:38.414Z,23.90
2019-04-16T13:02:20.503Z,25.30
2019-04-16T13:07:09.100Z,24.80
2019-04-16T13:15:18.327Z,24.50
2019-04-16T13:20:14.882Z,22.20
2019-04-16T13:28:47.286Z,23.40
2019-04-16T13:32:51.721Z,22.10
2019-04-16T13:36:59.334Z,21.90
2019-04-16T13:41:09.892Z,22.10
2019-04-16T13:45:33.759Z,22.10
2019-04-16T13:49:47.794Z,23.10
2019-04-16T13:54:54.778Z,24.90
2019-04-16T13:59:51.417Z,25.80
2019-04-16T14:04:19.565Z,23.90
2019-04-16T14:08:24.218Z,24.00
2019-04-16T14:12:43.924Z,26.60
2019-04-16T14:16:48.157Z,24.20
2019-04-16T14:20:52.512Z,23.50
2019-04-16T14:25:00.781Z,24.00
2019-04-16T14:29:11.407Z,23.20
2019-04-16T14:33:49.557Z,24.20
2019-04-16T14:39:07.870Z,22.20
2019-04-16T14:43:29.433Z,22.00
2019-04-16T14:47:45.533Z,24.30
2019-04-16T14:51:50.041Z,23.10
2019-04-16T14:56:10.007Z,22.30
2019-04-16T15:04:40.208Z,24.20
2019-04-16T15:09:23.025Z,23.50
2019-04-16T15:13:51.163Z,23.40
2019-04-16T15:18:36.453Z,23.20
2019-04-16T15:23:25.190Z,23.20
2019-04-16T15:28:23.210Z,25.80
2019-04-16T15:33:12.723Z,25.20
2019-04-16T15:38:05.085Z,27.00
2019-04-16T15:42:41.975Z,24.20
2019-04-16T15:47:52.577Z,25.90
2019-04-16T15:52:48.474Z,27.00
2019-04-16T15:57:29.281Z,28.40
2019-04-16T16:02:12.065Z,28.20
2019-04-16T16:06:43.660Z,27.30
2019-04-16T16:11:48.071Z,27.30
2019-04-16T16:16:19.921Z,28.60
2019-04-16T16:20:22.493Z,28.80
2019-04-16T16:24:27.417Z,28.60
2019-04-16T16:28:31.394Z,29.70
2019-04-16T16:32:42.914Z,30.60
2019-04-16T16:36:48.617Z,30.30
2019-04-16T16:40:58.764Z,29.10
2019-04-16T16:45:11.605Z,30.50
2019-04-16T16:49:20.789Z,30.70
2019-04-16T16:53:51.750Z,30.70
2019-04-16T16:58:23.165Z,29.60
2019-04-16T17:02:57.810Z,31.30
2019-04-16T17:07:43.129Z,31.00
2019-04-16T17:12:10.044Z,32.50
2019-04-16T17:16:16.714Z,34.10
2019-04-16T17:20:34.234Z,33.20
2019-04-16T17:24:54.569Z,34.70
2019-04-16T17:28:56.517Z,35.60
2019-04-16T17:33:00.802Z,37.10
2019-04-16T17:37:05.031Z,34.50
2019-04-16T17:43:13.915Z,34.20
2019-04-16T17:47:56.437Z,35.30
2019-04-16T17:54:18.642Z,35.60
2019-04-16T17:58:57.934Z,39.60
2019-04-16T18:03:24.862Z,39.90
2019-04-16T18:09:15.665Z,38.90
2019-04-16T18:13:46.298Z,38.80
2019-04-16T18:18:30.237Z,38.90
2019-04-16T18:23:20.697Z,38.10
2019-04-16T18:33:40.046Z,36.60
2019-04-16T18:37:59.530Z,35.50
2019-04-16T18:42:58.623Z,35.50
2019-04-16T18:47:38.811Z,35.60
2019-04-16T18:52:19.978Z,35.30
2019-04-16T18:56:21.941Z,35.70
2019-04-16T19:00:47.908Z,35.60
2019-04-16T19:05:00.154Z,35.50
2019-04-16T19:09:04.589Z,35.90
2019-04-16T19:13:19.637Z,37.30
2019-04-16T19:23:15.837Z,40.80
2019-04-16T19:27:19.422Z,38.90
2019-04-16T19:31:25.749Z,38.20
2019-04-16T19:35:32.158Z,38.30
2019-04-16T19:39:35.089Z,38.60
2019-04-16T19:43:46.058Z,44.40
2019-04-16T19:47:47.895Z,48.10
2019-04-16T19:52:09.593Z,49.40
2019-04-16T19:58:00.425Z,50.70
2019-04-16T20:02:04.434Z,50.10
2019-04-16T20:06:08.465Z,46.60
2019-04-16T20:11:11.105Z,47.30
2019-04-16T20:15:15.870Z,45.70
2019-04-16T20:19:17.586Z,44.60
2019-04-16T20:25:16.940Z,40.80
2019-04-16T20:29:14.891Z,42.20
2019-04-16T20:33:40.225Z,47.20
2019-04-16T20:37:50.420Z,45.90
2019-04-16T20:42:02.178Z,44.30
2019-04-16T20:46:06.193Z,45.00
2019-04-16T20:50:24.569Z,44.00
2019-04-16T20:55:27.397Z,42.90
2019-04-16T20:59:53.950Z,43.50
2019-04-16T21:07:48.398Z,43.40
2019-04-16T21:11:46.336Z,41.10
2019-04-16T21:17:44.837Z,40.20
2019-04-16T21:21:41.166Z,38.60
2019-04-16T21:25:52.158Z,41.20
2019-04-16T21:30:14.255Z,40.70
2019-04-16T21:34:37.454Z,42.30
2019-04-16T21:41:03.543Z,41.70
2019-04-16T21:45:01.357Z,40.10
2019-04-16T21:56:58.334Z,40.70
2019-04-16T22:04:47.310Z,43.50
2019-04-16T22:08:46.782Z,44.70
2019-04-16T22:12:57.547Z,42.80
2019-04-16T22:17:28.272Z,43.20
2019-04-16T22:21:27.229Z,41.10
2019-04-16T22:26:34.361Z,40.30
2019-04-16T22:30:38.389Z,39.80
2019-04-16T22:34:42.266Z,38.60
2019-04-16T22:45:05.755Z,38.50
2019-04-16T22:49:25.161Z,44.20
2019-04-16T22:53:31.121Z,43.30
2019-04-16T22:59:29.779Z,40.90
2019-04-16T23:05:24.070Z,40.00
2019-04-16T23:15:18.109Z,41.00
2019-04-16T23:19:14.419Z,40.90
2019-04-16T23:23:28.297Z,40.40
2019-04-16T23:29:25.999Z,41.50
2019-04-16T23:35:18.181Z,43.40
2019-04-16T23:45:08.361Z,45.50
2019-04-16T23:50:44.216Z,43.30
2019-04-16T23:55:05.126Z,43.60
